Time;durP1;ratioP1;P1;durP2;ratioP2;P2;SDS_P1;SDS_P2;PMS_P1;PMS_P2;Temp;Humidity;BMP_temperature;BMP_pressure;BME280_temperature;BME280_humidity;BME280_pressure;Samples;Min_cycle;Max_cycle;Signal;HPM_P1;HPM_P2
2022/08/21 00:00:22;;;;;;;9.05;4.47;;;;;;;15.61;77.08;101643.44;4914100;29;20032;-48
2022/08/21 00:02:52;;;;;;;9.25;5.10;;;;;;;15.58;76.64;101647.19;4913972;29;20035;-42
2022/08/21 00:05:18;;;;;;;10.35;4.78;;;;;;;15.59;77.35;101648.91;4914056;29;20096;-45
2022/08/21 00:07:43;;;;;;;10.65;5.30;;;;;;;15.57;77.04;101644.66;4914475;29;20028;-46
2022/08/21 00:10:09;;;;;;;10.18;4.53;;;;;;;15.56;77.01;101645.66;4914377;29;20088;-46
2022/08/21 00:12:35;;;;;;;6.18;4.53;;;;;;;15.50;77.05;101642.53;4915354;29;20052;-46
2022/08/21 00:15:00;;;;;;;7.47;4.93;;;;;;;15.52;76.64;101640.56;4914422;29;20036;-45
2022/08/21 00:17:25;;;;;;;8.18;5.95;;;;;;;15.45;76.84;101638.50;4917054;29;20315;-46
2022/08/21 00:19:51;;;;;;;8.23;4.82;;;;;;;15.41;77.14;101634.41;4914616;29;20064;-43
2022/08/21 00:22:17;;;;;;;6.83;5.30;;;;;;;15.41;77.25;101634.41;4913854;29;20041;-44
2022/08/21 00:24:42;;;;;;;11.20;5.18;;;;;;;15.40;76.64;101630.88;4914276;29;20284;-47
2022/08/21 00:27:07;;;;;;;8.88;4.78;;;;;;;15.39;76.50;101634.53;4909817;29;20029;-44
2022/08/21 00:29:33;;;;;;;8.23;5.05;;;;;;;15.35;76.86;101633.09;4912295;29;20196;-46
2022/08/21 00:31:58;;;;;;;6.28;4.97;;;;;;;15.33;76.75;101633.22;4914587;29;20088;-47
2022/08/21 00:34:24;;;;;;;7.20;4.75;;;;;;;15.28;76.13;101630.06;4917264;29;20060;-44
2022/08/21 00:36:49;;;;;;;8.35;5.10;;;;;;;15.29;76.49;101628.28;4918324;29;20039;-47
2022/08/21 00:39:14;;;;;;;10.25;5.05;;;;;;;15.25;76.42;101627.66;4918418;29;20060;-46
2022/08/21 00:41:41;;;;;;;7.63;5.00;;;;;;;15.24;76.63;101623.31;4918301;29;20033;-45
2022/08/21 00:44:10;;;;;;;8.93;5.15;;;;;;;15.21;76.57;101622.72;4917299;29;20084;-45
2022/08/21 00:46:36;;;;;;;;;;;;;;;15.33;74.47;101622.50;4918801;29;20028;-45
2022/08/21 00:49:03;;;;;;;6.90;5.05;;;;;;;15.21;77.69;101620.03;4917224;29;19923;-47
2022/08/21 00:51:36;;;;;;;7.45;5.40;;;;;;;15.21;77.35;101622.72;4957809;23;20064;-78
2022/08/21 00:54:02;;;;;;;7.68;5.53;;;;;;;15.18;77.26;101613.09;4916055;29;20043;-77
2022/08/21 00:56:28;;;;;;;10.93;5.35;;;;;;;15.20;77.30;101621.84;4911891;29;20048;-77
2022/08/21 00:58:57;;;;;;;7.60;5.63;;;;;;;15.13;77.02;101620.66;4907856;29;20036;-77
2022/08/21 01:01:22;;;;;;;7.80;5.32;;;;;;;15.06;77.16;101627.53;4919670;29;20039;-77
2022/08/21 01:03:49;;;;;;;6.40;5.43;;;;;;;15.03;77.40;101620.59;4914024;29;20024;-77
2022/08/21 01:06:14;;;;;;;6.85;5.20;;;;;;;15.02;77.78;101620.72;4919734;29;20028;-77
2022/08/21 01:08:39;;;;;;;8.73;5.47;;;;;;;15.04;77.68;101624.09;4916946;29;20079;-77
2022/08/21 01:11:05;;;;;;;8.63;5.53;;;;;;;14.98;76.73;101623.63;4919504;29;20103;-78
2022/08/21 01:13:35;;;;;;;9.07;5.75;;;;;;;14.89;77.99;101627.09;4919473;29;20032;-77
2022/08/21 01:16:03;;;;;;;7.80;5.88;;;;;;;14.91;78.19;101625.13;4917839;29;20036;-77
2022/08/21 01:18:28;;;;;;;10.00;5.68;;;;;;;14.90;78.19;101630.59;4926712;29;20028;-77
2022/08/21 01:21:05;;;;;;;10.23;5.63;;;;;;;14.93;77.68;101623.16;4922014;29;20028;-78
2022/08/21 01:23:31;;;;;;;9.80;5.68;;;;;;;14.88;77.43;101620.03;4919614;29;20034;-77
2022/08/21 01:25:57;;;;;;;8.55;5.38;;;;;;;14.83;77.96;101619.56;4920182;29;20040;-77
2022/08/21 01:28:23;;;;;;;7.22;5.22;;;;;;;14.82;77.99;101619.69;4915767;29;20120;-77
2022/08/21 01:30:51;;;;;;;8.10;5.55;;;;;;;14.80;78.83;101619.81;4929172;29;20095;-77
2022/08/21 01:33:19;;;;;;;5.95;5.03;;;;;;;14.77;78.59;101620.06;4922077;29;20028;-78
2022/08/21 01:35:45;;;;;;;9.93;6.07;;;;;;;14.78;78.47;101614.59;4926138;29;20035;-78
2022/08/21 01:38:10;;;;;;;8.13;5.97;;;;;;;14.78;78.82;101614.59;4919048;29;20043;-77
2022/08/21 01:40:35;;;;;;;7.17;5.33;;;;;;;14.74;79.02;101615.81;4919580;29;20036;-77
2022/08/21 01:43:02;;;;;;;7.07;5.73;;;;;;;14.66;78.61;101620.09;4931424;29;20760;-78
2022/08/21 01:45:27;;;;;;;6.32;5.45;;;;;;;14.63;79.00;101617.69;4918992;29;20310;-77
2022/08/21 01:47:52;;;;;;;7.18;6.03;;;;;;;14.62;78.74;101622.16;4919166;29;20469;-78
2022/08/21 01:50:19;;;;;;;10.25;6.10;;;;;;;14.63;79.49;101623.88;4918631;29;20362;-77
2022/08/21 01:52:45;;;;;;;7.20;5.72;;;;;;;14.57;78.70;101614.50;4919035;29;20075;-77
2022/08/21 01:55:12;;;;;;;10.27;6.40;;;;;;;14.48;79.76;101606.38;4917231;29;20116;-77
2022/08/21 01:57:38;;;;;;;8.70;5.55;;;;;;;14.54;78.97;101619.25;4918968;29;20032;-77
2022/08/21 02:00:08;;;;;;;10.80;6.50;;;;;;;14.48;79.67;101614.41;4918734;29;20457;-78
2022/08/21 02:02:33;;;;;;;9.05;6.32;;;;;;;14.49;79.86;101610.72;4918964;29;20024;-79
2022/08/21 02:04:59;;;;;;;10.43;6.68;;;;;;;14.48;80.02;101609.88;4918742;29;20438;-77
2022/08/21 02:07:24;;;;;;;8.10;6.32;;;;;;;14.45;79.77;101604.78;4917439;29;20024;-77
2022/08/21 02:09:49;;;;;;;7.00;6.30;;;;;;;14.45;79.80;101602.13;4911758;29;20076;-77
2022/08/21 02:12:15;;;;;;;10.02;6.90;;;;;;;14.43;80.00;101598.72;4916176;29;20083;-76
2022/08/21 02:14:40;;;;;;;7.65;6.82;;;;;;;14.41;80.12;101592.66;4918642;29;20028;-77
2022/08/21 02:17:05;;;;;;;11.98;6.90;;;;;;;14.39;80.24;101591.94;4914497;29;20438;-77
2022/08/21 02:19:31;;;;;;;8.10;6.10;;;;;;;14.40;79.97;101582.94;4933600;29;20082;-77
2022/08/21 02:21:56;;;;;;;8.98;7.30;;;;;;;14.35;80.26;101590.47;4923205;29;20079;-77
2022/08/21 02:24:21;;;;;;;8.40;6.72;;;;;;;14.35;79.78;101593.16;4927705;29;20114;-77
2022/08/21 02:26:47;;;;;;;9.40;6.90;;;;;;;14.36;79.65;101586.84;4911319;29;20102;-77
2022/08/21 02:29:12;;;;;;;10.48;7.82;;;;;;;14.28;80.04;101600.81;4918358;29;20103;-77
2022/08/21 02:31:37;;;;;;;11.50;7.75;;;;;;;14.25;79.83;101598.38;4918198;29;20032;-77
2022/08/21 02:34:03;;;;;;;11.07;7.53;;;;;;;14.25;79.95;101595.72;4916788;29;20027;-77
2022/08/21 02:36:28;;;;;;;10.55;7.75;;;;;;;14.23;79.67;101598.50;4918390;29;20035;-77
2022/08/21 02:38:54;;;;;;;9.82;7.45;;;;;;;14.22;79.82;101594.16;4917817;29;20156;-78
2022/08/21 02:41:21;;;;;;;12.57;7.95;;;;;;;14.14;79.73;101598.38;4917947;29;20036;-77
2022/08/21 02:43:46;;;;;;;9.60;7.72;;;;;;;14.14;79.29;101588.56;4916243;29;20481;-77
2022/08/21 02:46:14;;;;;;;8.43;7.15;;;;;;;14.10;80.07;101589.78;4916516;29;20059;-77
2022/08/21 02:48:40;;;;;;;9.75;7.13;;;;;;;14.09;80.40;101587.22;4936946;29;20461;-77
2022/08/21 02:51:10;;;;;;;8.82;7.82;;;;;;;14.05;79.68;101589.28;4921269;29;20038;-77
2022/08/21 02:53:36;;;;;;;11.15;7.88;;;;;;;14.03;80.20;101586.72;4915856;29;20043;-78
2022/08/21 02:56:06;;;;;;;10.43;8.15;;;;;;;13.99;80.29;101579.09;4917011;29;20028;-78
2022/08/21 02:58:35;;;;;;;12.43;8.23;;;;;;;13.93;80.14;101588.44;4917911;29;20119;-78
2022/08/21 03:01:00;;;;;;;15.55;8.90;;;;;;;13.96;80.37;101585.53;4917906;29;20035;-77
2022/08/21 03:03:27;;;;;;;9.52;8.30;;;;;;;13.93;80.42;101596.44;4919390;29;20031;-78
2022/08/21 03:05:54;;;;;;;12.32;8.32;;;;;;;13.91;80.58;101584.22;4926916;29;20432;-78
2022/08/21 03:08:20;;;;;;;11.30;8.80;;;;;;;13.88;80.73;101590.63;4920924;29;20485;-78
2022/08/21 03:10:49;;;;;;;10.15;9.15;;;;;;;13.85;81.01;101590.88;4917832;29;20032;-77
2022/08/21 03:13:15;;;;;;;;;;;;;;;13.98;78.65;101583.59;4911087;29;20137;-77
2022/08/21 03:15:40;;;;;;;11.57;8.23;;;;;;;13.85;80.53;101586.38;4917792;29;19993;-78
2022/08/21 03:18:06;;;;;;;13.77;7.63;;;;;;;13.83;80.81;101585.63;4917578;29;20048;-77
2022/08/21 03:20:33;;;;;;;12.07;8.98;;;;;;;13.83;80.88;101587.47;4923994;29;20020;-77
2022/08/21 03:22:59;;;;;;;9.63;7.78;;;;;;;13.82;80.92;101580.41;4923830;29;20092;-78
2022/08/21 03:25:26;;;;;;;11.45;8.07;;;;;;;13.76;80.35;101580.91;4912548;29;20020;-78
2022/08/21 03:27:52;;;;;;;10.27;8.27;;;;;;;13.74;80.67;101581.03;4923986;29;20035;-78
2022/08/21 03:30:19;;;;;;;11.98;8.10;;;;;;;13.66;81.11;101567.44;4924800;29;20115;-78
2022/08/21 03:32:46;;;;;;;10.98;7.97;;;;;;;13.77;81.31;101586.16;4905848;29;20060;-78
2022/08/21 03:35:12;;;;;;;11.93;7.88;;;;;;;13.73;81.22;101579.34;4938929;29;20050;-78
2022/08/21 03:37:37;;;;;;;12.18;8.10;;;;;;;13.69;80.82;101577.88;4924452;29;20036;-78
2022/08/21 03:40:05;;;;;;;9.45;7.68;;;;;;;13.61;81.35;101561.63;4923957;29;20040;-78
2022/08/21 03:42:30;;;;;;;12.20;7.90;;;;;;;13.61;80.86;101569.63;4905784;29;20032;-78
2022/08/21 03:44:56;;;;;;;13.57;7.97;;;;;;;13.63;81.78;101579.19;4915006;29;20104;-78
2022/08/21 03:47:22;;;;;;;12.93;8.10;;;;;;;13.60;81.67;101571.41;4930164;29;20642;-78
2022/08/21 03:49:47;;;;;;;12.07;7.93;;;;;;;13.62;81.21;101572.19;4917818;29;20315;-78
2022/08/21 03:52:12;;;;;;;11.35;7.72;;;;;;;13.57;81.38;101570.81;4931644;29;20071;-78
2022/08/21 03:54:40;;;;;;;11.32;7.20;;;;;;;13.58;81.32;101567.19;4936732;29;20028;-78
2022/08/21 03:57:05;;;;;;;10.23;7.45;;;;;;;13.50;81.79;101565.09;4905894;29;20377;-78
2022/08/21 03:59:31;;;;;;;11.70;8.05;;;;;;;13.53;82.47;101572.03;4929500;29;20047;-78
2022/08/21 04:01:59;;;;;;;12.87;7.83;;;;;;;13.44;82.08;101562.91;4920694;29;20111;-78
2022/08/21 04:04:26;;;;;;;9.60;7.97;;;;;;;13.50;82.59;101570.44;4916237;29;20292;-79
2022/08/21 04:06:51;;;;;;;13.05;8.02;;;;;;;13.47;82.26;101570.66;4923405;29;20042;-77
2022/08/21 04:09:18;;;;;;;11.10;8.00;;;;;;;13.46;82.45;101569.84;4936676;29;20032;-78
2022/08/21 04:11:43;;;;;;;13.23;7.97;;;;;;;13.45;82.43;101565.44;4917491;29;20036;-78
2022/08/21 04:14:09;;;;;;;12.32;7.95;;;;;;;13.47;82.08;101568.00;4929572;29;20038;-78
2022/08/21 04:16:35;;;;;;;13.57;7.97;;;;;;;13.37;82.71;101578.53;4930343;29;20091;-78
2022/08/21 04:19:01;;;;;;;12.10;8.10;;;;;;;13.40;82.82;101578.31;4917668;29;20066;-78
2022/08/21 04:21:26;;;;;;;11.43;7.93;;;;;;;13.39;82.45;101576.63;4923566;29;20024;-78
2022/08/21 04:23:54;;;;;;;11.30;7.07;;;;;;;13.39;83.08;101581.97;4934070;29;20039;-78
2022/08/21 04:26:19;;;;;;;11.63;7.97;;;;;;;13.30;83.27;101580.78;4911798;29;20059;-77
2022/08/21 04:28:44;;;;;;;15.82;7.85;;;;;;;13.32;82.86;101581.56;4922977;29;20051;-78
2022/08/21 04:31:10;;;;;;;14.13;7.75;;;;;;;13.35;82.98;101588.47;4929502;29;20039;-77
2022/08/21 04:33:35;;;;;;;12.48;7.38;;;;;;;13.27;82.83;101582.84;4917556;29;20028;-77
2022/08/21 04:36:01;;;;;;;9.25;7.55;;;;;;;13.28;83.09;101595.22;4930024;29;20122;-78
2022/08/21 04:38:27;;;;;;;12.45;7.93;;;;;;;13.28;82.69;101597.91;4917438;29;20028;-77
2022/08/21 04:40:52;;;;;;;11.65;7.40;;;;;;;13.26;82.95;101602.50;4922863;29;20074;-77
2022/08/21 04:43:20;;;;;;;10.73;7.57;;;;;;;13.25;83.37;101595.47;4935606;29;20111;-77
2022/08/21 04:45:47;;;;;;;12.98;7.38;;;;;;;13.18;83.36;101588.91;4908778;29;20051;-77
2022/08/21 04:48:15;;;;;;;12.30;7.78;;;;;;;13.19;83.53;101587.91;4915446;29;20495;-77
2022/08/21 04:50:51;;;;;;;9.02;7.05;;;;;;;13.13;83.01;101589.25;4916344;29;20480;-78
2022/08/21 04:53:27;;;;;;;12.85;7.95;;;;;;;13.17;83.19;101592.50;4914634;29;20036;-78
2022/08/21 04:55:56;;;;;;;10.98;6.97;;;;;;;13.21;82.90;101594.00;4934711;29;20628;-77
2022/08/21 04:58:24;;;;;;;11.32;6.97;;;;;;;13.11;83.31;101577.84;4919570;29;20031;-77
2022/08/21 05:00:52;;;;;;;12.52;7.47;;;;;;;13.13;83.52;101597.25;4925178;29;20065;-77
2022/08/21 05:03:18;;;;;;;10.65;7.40;;;;;;;13.15;83.40;101597.97;4921344;29;20047;-78
2022/08/21 05:05:43;;;;;;;12.52;7.88;;;;;;;13.19;83.47;101607.44;4934629;29;20051;-78
2022/08/21 05:08:12;;;;;;;12.57;6.95;;;;;;;13.17;83.35;101603.19;4918216;29;20029;-78
2022/08/21 05:10:37;;;;;;;9.18;7.25;;;;;;;13.22;83.57;101599.22;4917063;29;20108;-77
2022/08/21 05:13:03;;;;;;;10.57;7.60;;;;;;;13.24;83.62;101604.41;4914722;29;20114;-78
2022/08/21 05:15:29;;;;;;;14.57;6.95;;;;;;;13.25;83.51;101606.97;4930883;29;20028;-78
2022/08/21 05:17:55;;;;;;;12.50;7.45;;;;;;;13.24;83.60;101607.09;4915728;29;20108;-78
2022/08/21 05:20:20;;;;;;;11.63;7.05;;;;;;;13.27;83.80;101610.41;4923983;29;20041;-78
2022/08/21 05:22:45;;;;;;;12.43;7.43;;;;;;;13.25;83.82;101609.63;4925133;29;20020;-78
2022/08/21 05:25:11;;;;;;;12.32;6.72;;;;;;;13.28;83.53;101611.22;4925242;29;20050;-78
2022/08/21 05:27:38;;;;;;;11.80;7.75;;;;;;;13.25;83.90;101614.13;4935944;29;20075;-78
2022/08/21 05:30:07;;;;;;;10.88;7.55;;;;;;;13.26;84.37;101623.84;4918351;29;20081;-78
2022/08/21 05:32:33;;;;;;;11.98;6.80;;;;;;;13.31;84.13;101619.00;4918630;29;20036;-78
2022/08/21 05:34:59;;;;;;;11.32;7.50;;;;;;;13.27;84.62;101613.06;4920378;29;20020;-78
2022/08/21 05:37:24;;;;;;;11.90;7.38;;;;;;;13.34;84.78;101621.47;4921065;29;20031;-78
2022/08/21 05:39:49;;;;;;;9.98;7.35;;;;;;;13.33;85.12;101620.63;4919860;29;20050;-78
2022/08/21 05:42:15;;;;;;;9.67;7.30;;;;;;;13.37;84.46;101621.22;4919506;29;20034;-78
2022/08/21 05:44:40;;;;;;;13.07;7.65;;;;;;;13.38;85.07;101622.94;4920729;29;20306;-78
2022/08/21 05:47:08;;;;;;;10.52;7.25;;;;;;;13.40;85.32;101617.47;4924718;29;20499;-79
2022/08/21 05:49:33;;;;;;;15.32;7.63;;;;;;;13.46;85.24;101614.34;4922669;29;20028;-79
2022/08/21 05:51:59;;;;;;;10.95;7.00;;;;;;;13.47;84.88;101624.03;4917715;29;20059;-78
2022/08/21 05:54:24;;;;;;;10.93;6.43;;;;;;;13.49;85.41;101620.31;4918090;29;20039;-79
2022/08/21 05:56:50;;;;;;;13.63;6.72;;;;;;;13.54;85.57;101614.63;4915430;29;20400;-79
2022/08/21 05:59:15;;;;;;;12.25;7.13;;;;;;;13.56;85.42;101612.69;4912953;29;20505;-79
2022/08/21 06:01:49;;;;;;;14.93;6.40;;;;;;;13.62;85.56;101619.34;4914697;29;20044;-79
2022/08/21 06:04:14;;;;;;;15.05;6.47;;;;;;;13.63;85.63;101611.22;4928005;29;20028;-78
2022/08/21 06:06:41;;;;;;;11.80;6.68;;;;;;;13.67;85.64;101617.16;4914295;29;20556;-79
2022/08/21 06:09:06;;;;;;;12.48;6.38;;;;;;;13.73;86.06;101613.19;4919857;29;20028;-78
2022/08/21 06:11:32;;;;;;;11.50;6.50;;;;;;;13.79;86.12;101623.38;4921257;29;20121;-78
2022/08/21 06:13:58;;;;;;;11.85;6.47;;;;;;;13.82;86.30;101617.81;4918819;29;20127;-78
2022/08/21 06:16:24;;;;;;;10.95;6.30;;;;;;;13.82;86.18;101618.66;4918888;29;20130;-78
2022/08/21 06:18:49;;;;;;;10.63;6.55;;;;;;;13.90;86.24;101631.41;4916703;29;20038;-78
2022/08/21 06:21:15;;;;;;;17.20;6.93;;;;;;;13.95;86.47;101628.38;4925286;29;20048;-79
2022/08/21 06:23:41;;;;;;;15.30;6.68;;;;;;;14.02;86.09;101629.59;4918350;29;20028;-79
2022/08/21 06:26:08;;;;;;;12.55;6.45;;;;;;;14.05;86.70;101629.34;4910691;29;20044;-79
2022/08/21 06:28:34;;;;;;;12.23;6.65;;;;;;;14.12;86.41;101627.91;4916360;29;20092;-78
2022/08/21 06:31:00;;;;;;;12.48;6.68;;;;;;;14.18;87.34;101618.56;4913752;29;20044;-78
2022/08/21 06:33:26;;;;;;;14.57;6.35;;;;;;;14.29;87.16;101625.69;4913255;29;20036;-78
2022/08/21 06:35:51;;;;;;;12.85;6.07;;;;;;;14.34;86.71;101628.84;4921701;29;20040;-78
2022/08/21 06:38:16;;;;;;;15.00;6.28;;;;;;;14.40;86.86;101623.03;4917325;29;20043;-79
2022/08/21 06:40:42;;;;;;;17.52;6.88;;;;;;;14.49;86.88;101630.31;4912555;29;20051;-79
2022/08/21 06:43:13;;;;;;;15.10;6.45;;;;;;;14.57;87.66;101632.34;4913135;29;20032;-79
2022/08/21 06:45:39;;;;;;;12.30;6.15;;;;;;;14.66;86.78;101628.13;4910272;29;20045;-78
2022/08/21 06:48:06;;;;;;;14.25;6.40;;;;;;;14.76;87.48;101634.41;4914092;29;20405;-79
2022/08/21 06:50:32;;;;;;;13.82;6.40;;;;;;;14.86;87.70;101631.84;4917390;29;20040;-79
2022/08/21 06:53:08;;;;;;;13.77;6.28;;;;;;;14.97;86.95;101629.09;4920618;29;20051;-78
2022/08/21 06:55:33;;;;;;;14.02;6.13;;;;;;;15.07;87.48;101631.88;4917344;29;20042;-78
2022/08/21 06:57:59;;;;;;;11.55;6.18;;;;;;;15.25;87.55;101629.50;4917049;29;20028;-79
2022/08/21 07:00:24;;;;;;;15.27;6.20;;;;;;;15.36;87.15;101624.09;4905545;29;20036;-79
2022/08/21 07:02:49;;;;;;;15.38;6.40;;;;;;;15.53;86.64;101618.13;4934495;29;20024;-79
2022/08/21 07:05:15;;;;;;;11.53;5.40;;;;;;;15.74;86.23;101617.28;4923176;29;20036;-80
2022/08/21 07:07:40;;;;;;;14.35;5.90;;;;;;;15.94;86.48;101612.91;4916939;29;20315;-80
2022/08/21 07:10:06;;;;;;;20.55;6.03;;;;;;;16.19;84.53;101610.78;4920108;29;20104;-79
2022/08/21 07:12:31;;;;;;;17.23;6.32;;;;;;;16.43;84.19;101613.09;4917537;29;20047;-80
2022/08/21 07:14:56;;;;;;;9.55;5.75;;;;;;;16.69;82.99;101617.97;4923920;29;20028;-80
2022/08/21 07:17:21;;;;;;;11.13;5.68;;;;;;;16.94;81.90;101617.44;4917130;29;20079;-79
2022/08/21 07:19:47;;;;;;;12.77;5.07;;;;;;;17.23;81.15;101616.59;4930341;29;20046;-80
2022/08/21 07:22:15;;;;;;;14.50;5.03;;;;;;;17.60;80.18;101620.34;4915627;29;20701;-79
2022/08/21 07:24:41;;;;;;;13.57;5.60;;;;;;;17.74;78.94;101618.06;4909489;29;20024;-79
2022/08/21 07:27:06;;;;;;;13.60;5.22;;;;;;;17.97;78.52;101620.44;4924282;29;20511;-78
2022/08/21 07:29:31;;;;;;;17.23;5.13;;;;;;;18.09;77.81;101616.56;4913411;29;20475;-78
2022/08/21 07:31:57;;;;;;;12.50;4.90;;;;;;;18.28;77.84;101612.06;4909314;29;20029;-78
2022/08/21 07:34:22;;;;;;;11.10;4.20;;;;;;;18.38;77.45;101617.41;4911944;29;20080;-79
2022/08/21 07:36:48;;;;;;;13.02;4.57;;;;;;;18.48;76.05;101616.38;4914416;29;20024;-79
2022/08/21 07:39:13;;;;;;;14.10;4.78;;;;;;;18.77;75.19;101623.41;4915776;29;20099;-78
2022/08/21 07:41:49;;;;;;;13.98;5.00;;;;;;;18.87;74.41;101615.28;4924258;29;20039;-79
2022/08/21 07:44:14;;;;;;;10.23;4.43;;;;;;;19.19;74.03;101617.44;4913330;29;20044;-79
2022/08/21 07:46:40;;;;;;;12.85;4.53;;;;;;;19.42;73.16;101608.88;4909424;29;20055;-80
2022/08/21 07:49:05;;;;;;;16.23;4.25;;;;;;;19.63;73.09;101613.88;4908333;29;20126;-80
2022/08/21 07:51:31;;;;;;;12.67;4.20;;;;;;;19.78;71.22;101611.47;4915144;29;20055;-79
2022/08/21 07:53:58;;;;;;;12.98;4.18;;;;;;;19.92;70.70;101605.50;4915745;29;20887;-79
2022/08/21 07:56:24;;;;;;;12.57;3.83;;;;;;;20.05;69.43;101607.75;4914152;29;20036;-80
2022/08/21 07:58:49;;;;;;;9.30;3.75;;;;;;;20.22;68.19;101613.22;4914793;29;20422;-80
2022/08/21 08:01:15;;;;;;;14.07;3.80;;;;;;;20.41;68.84;101614.81;4915541;29;20028;-80
2022/08/21 08:03:40;;;;;;;12.45;3.95;;;;;;;20.59;67.39;101615.53;4911927;29;20040;-79
2022/08/21 08:06:11;;;;;;;14.57;3.72;;;;;;;20.76;66.96;101611.03;4916639;29;20028;-81
2022/08/21 08:08:37;;;;;;;8.50;3.45;;;;;;;20.83;65.21;101616.63;4924767;29;20807;-79
2022/08/21 08:11:02;;;;;;;91.68;8.10;;;;;;;21.20;65.70;101610.75;4925062;29;20102;-80
2022/08/21 08:13:27;;;;;;;9.43;3.40;;;;;;;21.34;65.18;101603.00;4918349;29;20060;-80
2022/08/21 08:15:53;;;;;;;9.93;3.38;;;;;;;21.44;64.49;101609.88;4916101;29;20401;-78
2022/08/21 08:18:18;;;;;;;9.65;3.45;;;;;;;21.64;64.45;101614.13;4915929;29;20023;-79
2022/08/21 08:20:44;;;;;;;13.52;3.42;;;;;;;21.99;64.59;101602.03;4913318;29;20050;-79
2022/08/21 08:23:11;;;;;;;10.70;2.90;;;;;;;22.10;61.95;101604.38;4914397;29;20504;-79
2022/08/21 08:25:37;;;;;;;11.50;3.17;;;;;;;22.35;61.58;101607.00;4915848;29;20032;-79
2022/08/21 08:28:04;;;;;;;15.32;3.63;;;;;;;22.46;61.42;101600.34;4911196;29;20044;-79
2022/08/21 08:30:29;;;;;;;11.25;3.13;;;;;;;22.63;61.02;101607.34;4908783;29;20107;-79
2022/08/21 08:32:56;;;;;;;10.70;3.35;;;;;;;22.67;60.28;101599.72;4905916;29;20123;-78
2022/08/21 08:35:22;;;;;;;11.70;3.10;;;;;;;22.86;59.63;101601.91;4918614;29;20028;-79
2022/08/21 08:37:47;;;;;;;12.60;3.38;;;;;;;23.12;58.29;101597.22;4919677;29;21543;-77
2022/08/21 08:40:20;;;;;;;7.65;2.90;;;;;;;23.41;60.11;101599.97;4926098;29;20030;-79
2022/08/21 08:42:47;;;;;;;12.23;3.20;;;;;;;23.73;58.18;101599.81;4918694;29;20032;-78
2022/08/21 08:45:17;;;;;;;12.38;3.28;;;;;;;24.14;56.75;101588.53;4916808;29;20426;-78
2022/08/21 08:47:51;;;;;;;12.15;3.28;;;;;;;24.39;56.06;101592.59;4920352;29;20042;-78
2022/08/21 08:50:21;;;;;;;10.20;2.92;;;;;;;24.51;54.14;101592.09;4916390;29;20059;-78
2022/08/21 08:52:57;;;;;;;9.05;2.47;;;;;;;24.63;55.78;101581.59;4937344;29;20062;-77
2022/08/21 08:55:44;;;;;;;9.15;2.63;;;;;;;24.77;55.83;101578.00;4927152;29;20138;-79
2022/08/21 08:58:20;;;;;;;9.23;2.63;;;;;;;24.90;54.00;101574.56;4930953;29;20039;-79
2022/08/21 09:00:48;;;;;;;11.20;2.78;;;;;;;25.11;52.63;101570.97;4921834;29;20064;-79
2022/08/21 09:03:15;;;;;;;8.98;2.65;;;;;;;25.17;52.82;101567.47;4921191;29;20084;-78
2022/08/21 09:06:01;;;;;;;9.82;2.78;;;;;;;25.27;53.44;101567.19;4928290;29;20028;-78
2022/08/21 09:09:02;;;;;;;11.60;2.80;;;;;;;25.24;53.51;101567.53;4912084;29;20027;-78
2022/08/21 09:11:36;;;;;;;8.65;2.28;;;;;;;25.08;51.09;101560.50;4901784;29;20477;-78
2022/08/21 09:14:02;;;;;;;6.45;2.28;;;;;;;25.03;50.20;101569.25;4907875;29;20389;-79
2022/08/21 09:16:44;;;;;;;13.00;2.47;;;;;;;25.12;50.47;101559.09;4920175;29;20032;-78
2022/08/21 09:19:36;;;;;;;10.75;2.00;;;;;;;25.06;51.46;101566.16;4918548;29;20039;-78
2022/08/21 09:22:22;;;;;;;8.25;1.90;;;;;;;25.15;47.94;101564.13;4919155;29;20068;-77
2022/08/21 09:25:07;;;;;;;6.28;1.90;;;;;;;25.34;50.62;101565.34;4919478;29;20043;-77
2022/08/21 09:27:33;;;;;;;8.15;2.72;;;;;;;25.44;47.79;101571.25;4919207;29;20107;-78
2022/08/21 09:29:58;;;;;;;5.50;1.95;;;;;;;25.56;46.02;101565.28;4923290;29;20122;-78
2022/08/21 09:32:27;;;;;;;8.35;2.10;;;;;;;25.72;47.67;101564.13;4924438;29;20024;-78
2022/08/21 09:35:02;;;;;;;8.57;2.40;;;;;;;26.04;47.23;101560.75;4917310;29;20032;-78
2022/08/21 09:37:30;;;;;;;8.73;2.55;;;;;;;26.21;46.25;101563.13;4918854;29;20073;-77
2022/08/21 09:39:57;;;;;;;10.90;2.30;;;;;;;26.51;45.38;101568.22;4919820;29;20482;-78
2022/08/21 09:42:27;;;;;;;9.63;2.30;;;;;;;26.64;45.25;101560.13;4919689;29;20032;-78
2022/08/21 09:45:15;;;;;;;9.05;2.35;;;;;;;26.74;47.47;101567.91;4923380;29;20040;-78
2022/08/21 09:47:42;;;;;;;8.55;2.22;;;;;;;26.92;44.53;101559.94;4922736;29;20031;-78
2022/08/21 09:50:11;;;;;;;7.55;2.28;;;;;;;27.11;44.66;101571.06;4926580;29;20043;-78
2022/08/21 09:52:51;;;;;;;;;;;;;;;27.44;47.91;101567.50;4922424;29;20059;-78
2022/08/21 09:58:15;;;;;;;5.97;2.25;;;;;;;27.67;43.29;101564.31;4915642;29;20039;-78
2022/08/21 10:00:40;;;;;;;9.63;2.50;;;;;;;27.48;43.34;101552.41;4916984;29;20040;-79
2022/08/21 10:03:15;;;;;;;7.28;2.25;;;;;;;27.62;44.10;101553.19;4919222;29;20028;-78
2022/08/21 10:06:01;;;;;;;8.50;2.08;;;;;;;27.88;43.88;101561.31;4913137;29;20552;-78
2022/08/21 10:08:28;;;;;;;7.25;2.22;;;;;;;28.14;42.33;101554.06;4916672;29;20025;-78
2022/08/21 10:11:06;;;;;;;4.10;1.70;;;;;;;28.20;41.33;101553.22;4926894;29;20083;-77
2022/08/21 10:13:52;;;;;;;8.05;2.10;;;;;;;28.26;42.62;101554.22;4914005;29;20028;-78
2022/08/21 10:16:24;;;;;;;4.95;1.90;;;;;;;27.81;41.24;101557.75;4916776;29;20038;-80
2022/08/21 10:19:12;;;;;;;10.48;2.15;;;;;;;27.92;42.50;101556.25;4916538;29;20437;-79
2022/08/21 10:21:55;;;;;;;8.10;2.28;;;;;;;27.69;42.02;101562.19;4915247;29;20036;-79
2022/08/21 10:24:32;;;;;;;6.30;2.40;;;;;;;27.39;41.01;101559.94;4915803;29;20111;-79
2022/08/21 10:27:15;;;;;;;6.78;2.20;;;;;;;27.70;41.91;101552.97;4915529;29;20111;-78
2022/08/21 10:29:49;;;;;;;5.90;1.88;;;;;;;27.63;42.91;101552.97;4919381;29;20116;-79
2022/08/21 10:32:46;;;;;;;4.63;1.90;;;;;;;27.71;42.72;101559.25;4910664;29;20028;-78
2022/08/21 10:35:18;;;;;;;6.68;2.42;;;;;;;27.53;38.16;101547.13;4916829;29;20028;-78
2022/08/21 10:37:56;;;;;;;5.68;1.60;;;;;;;27.40;40.81;101549.88;4917912;29;20103;-76
2022/08/21 10:40:29;;;;;;;7.13;2.08;;;;;;;27.36;40.92;101552.19;4929411;29;20051;-78
2022/08/21 10:43:03;;;;;;;6.82;2.38;;;;;;;27.30;40.12;101559.34;4918214;29;20039;-79
2022/08/21 10:45:38;;;;;;;9.25;1.80;;;;;;;27.52;41.58;101545.44;4915812;29;20103;-79
2022/08/21 10:48:07;;;;;;;9.63;2.45;;;;;;;27.54;40.06;101554.25;4923535;29;20544;-79
2022/08/21 10:50:49;;;;;;;5.47;2.10;;;;;;;27.76;40.86;101557.56;4915198;29;20108;-78
2022/08/21 10:53:36;;;;;;;5.25;1.90;;;;;;;27.85;41.80;101548.06;4928006;29;20082;-79
2022/08/21 10:56:11;;;;;;;5.85;2.00;;;;;;;27.77;40.03;101547.47;4905812;29;20054;-78
2022/08/21 10:58:41;;;;;;;6.63;2.10;;;;;;;27.83;41.56;101547.47;4905607;29;20067;-78
2022/08/21 11:01:28;;;;;;;7.78;1.98;;;;;;;27.81;41.28;101538.66;4917138;29;20040;-78
2022/08/21 11:04:12;;;;;;;7.38;2.10;;;;;;;27.61;41.29;101546.06;4917555;29;20450;-78
2022/08/21 11:06:42;;;;;;;6.50;2.10;;;;;;;27.35;40.10;101549.69;4921683;29;20656;-80
2022/08/21 11:09:17;;;;;;;8.13;2.60;;;;;;;27.18;39.59;101547.38;4920684;29;20032;-79
2022/08/21 11:11:57;;;;;;;8.57;2.60;;;;;;;27.19;41.04;101548.19;4915603;29;20048;-78
2022/08/21 11:14:36;;;;;;;5.75;2.13;;;;;;;27.37;42.24;101547.59;4906794;29;20028;-79
2022/08/21 11:17:11;;;;;;;7.45;2.42;;;;;;;27.41;41.72;101546.09;4903881;29;20036;-78
2022/08/21 11:19:48;;;;;;;7.63;2.00;;;;;;;27.77;41.30;101542.03;4904463;29;20047;-79
2022/08/21 11:22:21;;;;;;;6.53;2.33;;;;;;;27.71;38.69;101540.97;4918626;29;20032;-78
2022/08/21 11:25:07;;;;;;;5.80;2.25;;;;;;;27.84;39.47;101532.75;4923277;29;20114;-79
2022/08/21 11:27:38;;;;;;;7.65;2.38;;;;;;;27.92;39.39;101541.75;4920832;29;20040;-79
2022/08/21 11:30:05;;;;;;;5.53;1.77;;;;;;;28.33;39.10;101537.78;4911833;29;20058;-78